Marine Blue — 3ECO4 — position and weather

sailwx.info

Track history (hours):
 
Tides and Currents Weather Stations Pressure Air Temp Water Temp Dewpoint Dewpoint Depression Visibility Wind Speed Wind Dir Waves Ship Positions

Marine Blue

Last reported at 2015-May-21 10:09 UTC. Time now 2015-May-29 08:22 UTC.
Position N 34°35' E 134°51'.

Length 125 m; draft 5.3 m.

Type: Cargo ship. MMSI: 371414000.

Date/timePositionNaut miles runAvg speedWind from/ knotsBaromVisibWave heightAir tempDewpointWater temp
2015-May-21 10:09N 34°35' E 134°51'813.0
2015-May-21 09:32N 34°38' E 134°60'9 8.9
2015-May-21 08:33N 34°29' E 135°04'1312.5
2015-May-21 07:32N 34°17' E 134°59'1111.0
2015-May-21 06:33N 34°07' E 134°60'1211.8
2015-May-21 05:33N 33°55' E 134°60'186 9.7
2015-May-20 10:20N 35°01' E 138°30'  
2015-May-14 08:03N 34°54' E 138°33'18410.4
2015-May-13 14:26N 34°04' E 134°58'1313.5
2015-May-13 13:27N 34°18' E 134°58'1213.6
2015-May-13 12:33N 34°29' E 135°03'13 8.5
2015-May-13 11:05N 34°33' E 134°48'  
Track history (hours):
 
Tides and Currents Weather Stations Pressure Air Temp Water Temp Dewpoint Dewpoint Depression Visibility Wind Speed Wind Dir Waves Ship Positions

Marine Blue

Last reported at 2015-May-21 10:09 UTC. Time now 2015-May-29 08:22 UTC.
Position N 34°35' E 134°51'.

Length 125 m; draft 5.3 m.

Type: Cargo ship. MMSI: 371414000.

Date/timePositionNaut miles runAvg speedWind from/ knotsBaromVisibWave heightAir tempDewpointWater temp
2015-May-21 10:09N 34°35' E 134°51'813.0
2015-May-21 09:32N 34°38' E 134°60'9 8.9
2015-May-21 08:33N 34°29' E 135°04'1312.5
2015-May-21 07:32N 34°17' E 134°59'1111.0
2015-May-21 06:33N 34°07' E 134°60'1211.8
2015-May-21 05:33N 33°55' E 134°60'186 9.7
2015-May-20 10:20N 35°01' E 138°30'  
2015-May-14 08:03N 34°54' E 138°33'18410.4
2015-May-13 14:26N 34°04' E 134°58'1313.5
2015-May-13 13:27N 34°18' E 134°58'1213.6
2015-May-13 12:33N 34°29' E 135°03'13 8.5
2015-May-13 11:05N 34°33' E 134°48'  

Dump ship's entire track history